Terminal Aerodrome Forecast
Issued by NWS

Home | Current Version | Previous Version | Graphics & Text | Print | Product List | Glossary On
Versions: 1 2 3 4 5 6 7 8 9 10 11 12 13 14
000
FTUS45 KGGW 221723 AAB
TAFGDV
TAF AMD
KGDV 221723Z 2217/2318 30015G25KT P6SM SCT120
     FM222300 31026G34KT P6SM BKN100
     FM230200 32022G31KT P6SM VCSH BKN070
     FM230900 31013KT P6SM SCT050=

USA.gov is the U.S. government's official web portal to all federal, state and local government web resources and services.